createdAt,value
2017-09-07T00:01:24.425Z,17.90
2017-09-07T00:03:51.496Z,17.90
2017-09-07T00:06:18.584Z,17.90
2017-09-07T00:08:45.645Z,17.90
2017-09-07T00:11:12.737Z,17.90
2017-09-07T00:13:40.576Z,17.90
2017-09-07T00:16:07.673Z,17.90
2017-09-07T00:18:34.737Z,17.90
2017-09-07T00:21:01.829Z,17.90
2017-09-07T00:23:28.917Z,17.90
2017-09-07T00:25:56.005Z,17.90
2017-09-07T00:28:23.072Z,17.90
2017-09-07T00:30:50.161Z,17.90
2017-09-07T00:33:17.222Z,17.80
2017-09-07T00:35:44.285Z,17.70
2017-09-07T00:38:11.381Z,17.70
2017-09-07T00:40:38.444Z,17.80
2017-09-07T00:43:06.309Z,17.70
2017-09-07T00:45:33.377Z,17.70
2017-09-07T00:48:00.470Z,17.70
2017-09-07T00:50:27.543Z,17.60
2017-09-07T00:52:54.628Z,17.70
2017-09-07T00:55:21.694Z,17.70
2017-09-07T00:57:48.780Z,17.70
2017-09-07T01:00:15.844Z,17.70
2017-09-07T01:02:42.928Z,17.60
2017-09-07T01:05:09.996Z,17.60
2017-09-07T01:07:37.092Z,17.60
2017-09-07T01:10:04.160Z,17.50
2017-09-07T01:12:31.248Z,17.40
2017-09-07T01:14:58.317Z,17.40
2017-09-07T01:17:25.408Z,17.30
2017-09-07T01:19:52.472Z,17.30
2017-09-07T01:22:19.562Z,17.30
2017-09-07T01:24:46.628Z,17.30
2017-09-07T01:27:13.697Z,17.10
2017-09-07T01:29:40.794Z,17.20
2017-09-07T01:32:07.861Z,17.20
2017-09-07T01:34:34.948Z,17.10
2017-09-07T01:37:02.008Z,16.90
2017-09-07T01:39:29.096Z,16.80
2017-09-07T01:41:56.169Z,16.80
2017-09-07T01:44:23.262Z,16.80
2017-09-07T01:46:50.325Z,16.90
2017-09-07T01:49:17.418Z,16.90
2017-09-07T01:51:44.489Z,16.90
2017-09-07T01:54:11.576Z,16.90
2017-09-07T01:56:38.640Z,16.80
2017-09-07T01:59:05.735Z,16.70
2017-09-07T02:01:32.810Z,16.70
2017-09-07T02:03:59.877Z,16.70
2017-09-07T02:06:26.969Z,16.60
2017-09-07T02:08:54.032Z,16.60
2017-09-07T02:11:21.116Z,16.60
2017-09-07T02:13:48.180Z,16.50
2017-09-07T02:16:15.274Z,16.50
2017-09-07T02:18:42.348Z,16.50
2017-09-07T02:21:09.440Z,16.50
2017-09-07T02:23:36.503Z,16.50
2017-09-07T02:26:03.593Z,16.50
2017-09-07T02:28:30.658Z,16.30
2017-09-07T02:30:57.751Z,16.20
2017-09-07T02:33:24.823Z,16.10
2017-09-07T02:35:51.912Z,16.10
2017-09-07T02:38:18.985Z,16.10
2017-09-07T02:40:46.073Z,16.10
2017-09-07T02:43:13.140Z,16.10
2017-09-07T02:45:40.242Z,16.10
2017-09-07T02:48:07.317Z,16.00
2017-09-07T02:50:35.177Z,15.90
2017-09-07T02:53:02.244Z,15.90
2017-09-07T02:55:29.317Z,15.90
2017-09-07T02:57:56.416Z,15.80
2017-09-07T03:00:23.485Z,15.70
2017-09-07T03:02:50.581Z,15.70
2017-09-07T03:05:17.644Z,15.70
2017-09-07T03:07:45.501Z,15.50
2017-09-07T03:10:13.332Z,15.50
2017-09-07T03:12:40.421Z,15.40
2017-09-07T03:15:15.594Z,15.50
2017-09-07T03:17:42.685Z,15.60
2017-09-07T03:20:09.756Z,15.50
2017-09-07T03:22:37.620Z,15.50
2017-09-07T03:25:04.715Z,15.40
2017-09-07T03:27:31.798Z,15.50
2017-09-07T03:29:58.865Z,15.50
2017-09-07T03:32:25.957Z,15.50
2017-09-07T03:34:53.025Z,15.50
2017-09-07T03:37:20.113Z,15.50
2017-09-07T03:39:47.182Z,15.60
2017-09-07T03:42:14.277Z,15.50
2017-09-07T03:44:41.342Z,15.30
2017-09-07T03:47:08.409Z,15.30
2017-09-07T03:49:35.498Z,15.40
2017-09-07T03:52:02.565Z,15.30
2017-09-07T03:54:29.668Z,15.40
2017-09-07T03:56:56.739Z,15.20
2017-09-07T03:59:23.827Z,15.20
2017-09-07T04:01:50.897Z,15.20
2017-09-07T04:04:17.993Z,15.20
2017-09-07T04:06:45.067Z,15.30
2017-09-07T04:09:12.165Z,15.30
2017-09-07T04:11:39.233Z,15.30
2017-09-07T04:14:06.326Z,15.20
2017-09-07T04:16:33.393Z,15.30
2017-09-07T04:19:01.249Z,15.50
2017-09-07T04:21:56.740Z,15.40
2017-09-07T04:24:23.824Z,15.40
2017-09-07T04:26:51.652Z,15.50
2017-09-07T04:29:18.740Z,15.40
2017-09-07T04:31:46.569Z,15.40
2017-09-07T04:34:13.913Z,15.40
2017-09-07T04:36:40.977Z,15.40
2017-09-07T04:39:08.077Z,15.30
2017-09-07T04:41:35.137Z,15.40
2017-09-07T04:44:02.241Z,15.40
2017-09-07T04:46:29.300Z,15.40
2017-09-07T04:48:57.132Z,15.40
2017-09-07T04:51:24.252Z,15.40
2017-09-07T04:53:51.322Z,15.40
2017-09-07T04:56:18.412Z,15.40
2017-09-07T04:58:45.479Z,15.40
2017-09-07T05:01:12.573Z,15.30
2017-09-07T05:03:39.637Z,15.40
2017-09-07T05:06:06.762Z,15.40
2017-09-07T05:08:34.269Z,15.50
2017-09-07T05:11:02.139Z,15.50
2017-09-07T05:13:29.979Z,15.40
2017-09-07T05:15:57.077Z,15.40
2017-09-07T05:18:24.141Z,15.40
2017-09-07T05:20:51.253Z,15.40
2017-09-07T05:23:18.320Z,15.40
2017-09-07T05:25:45.409Z,15.50
2017-09-07T05:28:12.473Z,15.50
2017-09-07T05:30:39.575Z,15.50
2017-09-07T05:33:06.641Z,15.40
2017-09-07T05:35:33.709Z,15.40
2017-09-07T05:38:00.805Z,15.40
2017-09-07T05:40:27.870Z,15.40
2017-09-07T05:42:54.960Z,15.50
2017-09-07T05:45:22.034Z,15.60
2017-09-07T05:47:49.893Z,15.60
2017-09-07T05:50:17.729Z,15.70
2017-09-07T05:52:44.820Z,15.60
2017-09-07T05:55:12.658Z,15.60
2017-09-07T05:57:39.745Z,15.60
2017-09-07T06:00:06.813Z,15.70
2017-09-07T06:02:33.901Z,15.60
2017-09-07T06:05:01.017Z,15.70
2017-09-07T06:07:28.108Z,15.70
2017-09-07T06:09:55.178Z,15.70
2017-09-07T06:12:23.041Z,15.70
2017-09-07T06:14:50.114Z,15.60
2017-09-07T06:17:17.205Z,15.60
2017-09-07T06:19:44.276Z,15.70
2017-09-07T06:22:12.151Z,15.80
2017-09-07T06:24:39.981Z,15.80
2017-09-07T06:27:07.048Z,15.80
2017-09-07T06:29:34.140Z,15.80
2017-09-07T06:32:01.200Z,15.80
2017-09-07T06:34:28.285Z,15.80
2017-09-07T06:36:55.353Z,16.00
2017-09-07T06:39:23.213Z,16.10
2017-09-07T06:41:50.281Z,16.10
2017-09-07T06:44:18.147Z,16.10
2017-09-07T06:46:45.226Z,16.00
2017-09-07T06:49:12.317Z,16.20
2017-09-07T06:51:39.385Z,16.30
2017-09-07T06:54:07.241Z,16.40
2017-09-07T06:56:34.303Z,16.30
2017-09-07T06:59:02.157Z,16.50
2017-09-07T07:01:29.226Z,16.50
2017-09-07T07:03:57.086Z,16.60
2017-09-07T07:06:24.928Z,16.60
2017-09-07T07:08:52.021Z,16.60
2017-09-07T07:11:19.085Z,16.60
2017-09-07T07:13:46.186Z,16.60
2017-09-07T07:16:13.264Z,16.60
2017-09-07T07:18:40.330Z,16.80
2017-09-07T07:21:07.428Z,16.90
2017-09-07T07:23:34.492Z,16.80
2017-09-07T07:26:02.345Z,16.70
2017-09-07T07:28:29.408Z,16.70
2017-09-07T07:30:57.272Z,16.90
2017-09-07T07:33:25.105Z,16.90
2017-09-07T07:35:52.196Z,16.90
2017-09-07T07:38:20.033Z,16.90
2017-09-07T07:40:47.121Z,16.90
2017-09-07T07:43:14.181Z,16.90
2017-09-07T07:45:41.281Z,16.90
2017-09-07T07:48:08.344Z,16.90
2017-09-07T07:50:36.209Z,17.00
2017-09-07T07:53:04.053Z,17.00
2017-09-07T07:55:31.141Z,17.00
2017-09-07T07:57:58.975Z,17.00
2017-09-07T08:00:26.048Z,17.00
2017-09-07T08:02:53.908Z,17.30
2017-09-07T08:05:21.741Z,17.30
2017-09-07T08:07:48.832Z,17.30
2017-09-07T08:10:16.660Z,17.30
2017-09-07T08:12:43.748Z,17.30
2017-09-07T08:15:11.578Z,17.60
2017-09-07T08:17:38.674Z,17.50
2017-09-07T08:20:05.742Z,17.70
2017-09-07T08:22:32.828Z,17.80
2017-09-07T08:24:59.905Z,18.00
2017-09-07T08:27:27.765Z,18.20
2017-09-07T08:29:55.601Z,18.40
2017-09-07T08:32:22.697Z,18.40
2017-09-07T08:34:50.533Z,18.50
2017-09-07T08:37:17.632Z,18.50
2017-09-07T08:39:44.700Z,19.00
2017-09-07T08:42:11.796Z,19.20
2017-09-07T08:44:39.624Z,19.10
2017-09-07T08:47:06.689Z,19.10
2017-09-07T08:49:33.776Z,19.10
2017-09-07T08:52:00.845Z,19.10
2017-09-07T08:54:27.932Z,19.40
2017-09-07T08:56:54.996Z,19.50
2017-09-07T08:59:22.869Z,19.30
2017-09-07T09:01:50.712Z,19.50
2017-09-07T09:04:17.805Z,19.50
2017-09-07T09:06:44.872Z,19.70
2017-09-07T09:09:11.970Z,19.90
2017-09-07T09:11:39.045Z,19.90
2017-09-07T09:14:06.137Z,20.20
2017-09-07T09:16:33.201Z,20.50
2017-09-07T09:19:00.288Z,20.50
2017-09-07T09:21:28.121Z,20.70
2017-09-07T09:23:55.212Z,20.70
2017-09-07T09:26:22.279Z,20.60
2017-09-07T09:28:49.364Z,20.50
2017-09-07T09:31:16.433Z,20.30
2017-09-07T09:33:44.297Z,20.20
2017-09-07T09:36:12.134Z,20.00
2017-09-07T09:38:39.201Z,19.90
2017-09-07T09:41:06.306Z,19.90
2017-09-07T09:43:33.370Z,20.10
2017-09-07T09:46:00.466Z,20.20
2017-09-07T09:48:28.306Z,20.50
2017-09-07T09:50:55.402Z,20.40
2017-09-07T09:53:22.469Z,20.60
2017-09-07T09:55:49.560Z,20.80
2017-09-07T09:58:16.633Z,20.90
2017-09-07T10:00:43.734Z,21.10
2017-09-07T10:03:10.801Z,20.80
2017-09-07T10:05:37.897Z,20.60
2017-09-07T10:08:04.961Z,20.40
2017-09-07T10:10:32.058Z,20.00
2017-09-07T10:12:59.129Z,19.80
2017-09-07T10:15:26.988Z,19.70
2017-09-07T10:17:54.821Z,19.50
2017-09-07T10:20:21.922Z,19.50
2017-09-07T10:22:48.989Z,19.40
2017-09-07T10:25:16.053Z,19.30
2017-09-07T10:27:43.150Z,19.40
2017-09-07T10:30:10.985Z,19.30
2017-09-07T10:32:38.119Z,19.30
2017-09-07T10:35:05.170Z,19.30
2017-09-07T10:37:32.261Z,19.40
2017-09-07T10:40:00.098Z,19.30
2017-09-07T10:42:27.189Z,19.30
2017-09-07T10:44:54.255Z,19.20
2017-09-07T10:47:21.346Z,18.90
2017-09-07T10:49:48.416Z,19.00
2017-09-07T10:52:16.269Z,19.10
2017-09-07T10:54:43.336Z,19.00
2017-09-07T10:57:11.200Z,19.30
2017-09-07T10:59:39.037Z,19.20
2017-09-07T11:02:06.125Z,19.20
2017-09-07T11:04:33.960Z,19.30
2017-09-07T11:07:01.058Z,19.30
2017-09-07T11:09:28.126Z,19.60
2017-09-07T11:11:55.230Z,19.70
2017-09-07T11:14:23.065Z,19.70
2017-09-07T11:16:50.137Z,19.60
2017-09-07T11:19:17.994Z,19.70
2017-09-07T11:21:45.066Z,19.70
2017-09-07T11:24:12.933Z,20.20
2017-09-07T11:26:40.769Z,20.30
2017-09-07T11:29:07.869Z,20.20
2017-09-07T11:31:34.938Z,20.30
2017-09-07T11:34:02.037Z,20.50
2017-09-07T11:36:29.874Z,20.90
2017-09-07T11:38:56.969Z,20.90
2017-09-07T11:41:24.800Z,20.60
2017-09-07T11:43:51.897Z,20.60
2017-09-07T11:46:18.979Z,20.60
2017-09-07T11:48:46.078Z,20.80
2017-09-07T11:51:13.157Z,20.80
2017-09-07T11:53:40.245Z,20.50
2017-09-07T11:56:07.313Z,20.60
2017-09-07T11:58:35.169Z,20.70
2017-09-07T12:01:02.234Z,20.60
2017-09-07T12:03:30.101Z,20.70
2017-09-07T12:05:57.939Z,20.60
2017-09-07T12:08:25.010Z,20.60
2017-09-07T12:10:53.228Z,20.50
2017-09-07T12:13:20.301Z,20.50
2017-09-07T12:15:47.397Z,20.50
2017-09-07T12:18:14.464Z,20.80
2017-09-07T12:20:41.559Z,21.00
2017-09-07T12:23:08.632Z,21.00
2017-09-07T12:25:36.495Z,21.20
2017-09-07T12:28:04.330Z,21.60
2017-09-07T12:30:31.423Z,21.50
2017-09-07T12:32:58.493Z,21.70
2017-09-07T12:35:25.594Z,22.20
2017-09-07T12:37:52.661Z,22.10
2017-09-07T12:40:20.529Z,21.80
2017-09-07T12:42:48.357Z,22.10
2017-09-07T12:45:15.449Z,22.10
2017-09-07T12:47:42.509Z,22.00
2017-09-07T12:50:09.601Z,22.00
2017-09-07T12:52:36.677Z,21.90
2017-09-07T12:55:04.513Z,21.70
2017-09-07T12:57:31.605Z,21.70
2017-09-07T12:59:58.691Z,21.70
2017-09-07T13:02:25.785Z,21.80
2017-09-07T13:04:53.625Z,21.90
2017-09-07T13:07:20.754Z,21.80
2017-09-07T13:09:47.825Z,21.90
2017-09-07T13:12:14.916Z,22.30
2017-09-07T13:14:41.989Z,22.60
2017-09-07T13:17:09.134Z,22.00
2017-09-07T13:19:36.200Z,21.90
2017-09-07T13:22:03.293Z,21.90
2017-09-07T13:24:31.124Z,22.10
2017-09-07T13:26:58.216Z,22.10
2017-09-07T13:29:26.057Z,22.10
2017-09-07T13:31:53.158Z,22.10
2017-09-07T13:34:20.230Z,22.00
2017-09-07T13:36:47.328Z,21.90
2017-09-07T13:39:15.161Z,21.40
2017-09-07T13:41:42.254Z,21.40
2017-09-07T13:44:09.321Z,21.30
2017-09-07T13:46:36.389Z,21.20
2017-09-07T13:49:03.485Z,21.30
2017-09-07T13:51:31.320Z,21.00
2017-09-07T13:53:58.408Z,21.00
2017-09-07T13:56:25.478Z,21.10
2017-09-07T13:58:52.569Z,21.20
2017-09-07T14:01:19.641Z,21.50
2017-09-07T14:03:47.501Z,21.80
2017-09-07T14:06:14.574Z,21.80
2017-09-07T14:08:41.665Z,21.80
2017-09-07T14:11:08.737Z,21.90
2017-09-07T14:13:35.833Z,22.10
2017-09-07T14:16:02.901Z,22.60
2017-09-07T14:18:30.003Z,22.60
2017-09-07T14:20:57.842Z,22.70
2017-09-07T14:23:24.934Z,22.70
2017-09-07T14:25:52.005Z,22.50
2017-09-07T14:28:19.154Z,22.30
2017-09-07T14:30:46.225Z,22.30
2017-09-07T14:33:13.326Z,22.50
2017-09-07T14:35:40.401Z,22.50
2017-09-07T14:38:07.465Z,22.80
2017-09-07T14:40:34.561Z,22.90
2017-09-07T14:43:02.393Z,22.90
2017-09-07T14:45:29.485Z,22.90
2017-09-07T14:47:56.555Z,22.90
2017-09-07T14:50:23.656Z,23.00
2017-09-07T14:52:50.726Z,22.40
2017-09-07T14:55:18.589Z,22.70
2017-09-07T14:57:46.425Z,22.90
2017-09-07T15:00:13.513Z,22.90
2017-09-07T15:02:40.577Z,22.90
2017-09-07T15:05:07.665Z,22.50
2017-09-07T15:07:34.737Z,23.90
2017-09-07T15:10:01.832Z,26.30
2017-09-07T15:12:28.897Z,28.70
2017-09-07T15:14:55.994Z,26.80
2017-09-07T15:17:23.064Z,28.10
2017-09-07T15:19:50.169Z,26.70
2017-09-07T15:22:17.241Z,25.20
2017-09-07T15:24:44.309Z,24.30
2017-09-07T15:27:11.401Z,23.80
2017-09-07T15:29:38.469Z,23.00
2017-09-07T15:32:06.337Z,22.50
2017-09-07T15:34:33.400Z,22.50
2017-09-07T15:37:01.254Z,25.20
2017-09-07T15:39:28.326Z,25.20
2017-09-07T15:41:55.413Z,28.50
2017-09-07T15:44:22.477Z,29.30
2017-09-07T15:46:49.573Z,28.80
2017-09-07T15:49:16.643Z,29.40
2017-09-07T15:51:43.733Z,30.20
2017-09-07T15:54:10.813Z,29.60
2017-09-07T15:56:38.676Z,25.00
2017-09-07T15:59:05.746Z,24.90
2017-09-07T16:01:32.837Z,23.80
2017-09-07T16:03:59.906Z,23.40
2017-09-07T16:06:27.001Z,23.20
2017-09-07T16:08:54.065Z,23.10
2017-09-07T16:11:21.165Z,22.90
2017-09-07T16:13:49.003Z,22.80
2017-09-07T16:16:16.077Z,22.80
2017-09-07T16:18:43.937Z,22.80
2017-09-07T16:21:11.015Z,22.80
2017-09-07T16:23:38.102Z,22.50
2017-09-07T16:26:05.170Z,22.20
2017-09-07T16:28:32.265Z,22.20
2017-09-07T16:30:59.329Z,22.20
2017-09-07T16:33:26.418Z,22.20
2017-09-07T16:35:53.489Z,22.00
2017-09-07T16:38:21.349Z,21.90
2017-09-07T16:40:49.185Z,21.90
2017-09-07T16:43:16.277Z,21.90
2017-09-07T16:45:44.113Z,21.80
2017-09-07T16:48:12.447Z,21.80
2017-09-07T16:50:40.950Z,21.70
2017-09-07T16:53:09.529Z,21.70
2017-09-07T16:55:38.096Z,21.70
2017-09-07T16:58:08.066Z,21.50
2017-09-07T17:00:36.675Z,21.50
2017-09-07T17:03:04.536Z,21.30
2017-09-07T17:05:33.151Z,20.90
2017-09-07T17:08:01.617Z,20.60
2017-09-07T17:10:30.172Z,20.20
2017-09-07T17:12:57.282Z,20.10
2017-09-07T17:15:25.784Z,20.00
2017-09-07T17:17:54.248Z,19.90
2017-09-07T17:20:22.601Z,19.80
2017-09-07T17:22:50.470Z,19.70
2017-09-07T17:25:21.202Z,19.70
2017-09-07T17:27:50.298Z,19.60
2017-09-07T17:30:19.373Z,19.50
2017-09-07T17:32:47.753Z,19.50
2017-09-07T17:35:16.253Z,19.50
2017-09-07T17:37:43.429Z,19.40
2017-09-07T17:40:10.522Z,19.20
2017-09-07T17:42:38.357Z,19.20
2017-09-07T17:45:05.449Z,19.10
2017-09-07T17:47:33.129Z,19.10
2017-09-07T17:50:00.392Z,18.90
2017-09-07T17:52:27.465Z,18.80
2017-09-07T17:54:56.016Z,18.70
2017-09-07T17:57:23.913Z,18.50
2017-09-07T17:59:51.125Z,18.50
2017-09-07T18:02:19.513Z,18.40
2017-09-07T18:04:46.866Z,18.20
2017-09-07T18:07:15.365Z,18.30
2017-09-07T18:09:43.832Z,18.10
2017-09-07T18:12:12.830Z,18.10
2017-09-07T18:14:41.492Z,18.10
2017-09-07T18:17:10.197Z,18.10
2017-09-07T18:19:39.188Z,17.80
2017-09-07T18:22:06.389Z,17.90
2017-09-07T18:24:33.466Z,17.80
2017-09-07T18:27:00.553Z,17.50
2017-09-07T18:29:27.626Z,17.60
2017-09-07T18:31:54.738Z,17.60
2017-09-07T18:34:21.805Z,17.60
2017-09-07T18:36:48.897Z,17.60
2017-09-07T18:39:16.733Z,17.50
2017-09-07T18:41:43.833Z,17.40
2017-09-07T18:44:10.901Z,17.50
2017-09-07T18:46:37.993Z,17.50
2017-09-07T18:49:05.061Z,17.50
2017-09-07T18:51:32.921Z,17.50
2017-09-07T18:54:00.826Z,17.50
2017-09-07T18:56:27.898Z,17.50
2017-09-07T18:58:54.993Z,17.40
2017-09-07T19:01:22.826Z,17.50
2017-09-07T19:03:49.920Z,17.50
2017-09-07T19:06:16.991Z,17.40
2017-09-07T19:08:44.081Z,17.50
2017-09-07T19:11:11.150Z,17.40
2017-09-07T19:13:39.115Z,17.50
2017-09-07T19:16:06.944Z,17.50
2017-09-07T19:18:34.033Z,17.50
2017-09-07T19:21:01.868Z,17.60
2017-09-07T19:23:28.961Z,17.60
2017-09-07T19:25:56.033Z,17.60
2017-09-07T19:28:23.137Z,17.60
2017-09-07T19:30:50.205Z,17.50
2017-09-07T19:33:17.293Z,17.50
2017-09-07T19:35:44.361Z,17.40
2017-09-07T19:38:11.453Z,17.40
2017-09-07T19:40:38.518Z,17.40
2017-09-07T19:43:05.613Z,17.40
2017-09-07T19:45:32.927Z,17.40
2017-09-07T19:48:00.022Z,17.30
2017-09-07T19:50:27.126Z,17.00
2017-09-07T19:52:54.188Z,16.90
2017-09-07T19:55:21.631Z,16.90
2017-09-07T19:57:48.701Z,17.00
2017-09-07T20:00:15.793Z,17.00
2017-09-07T20:02:43.625Z,17.00
2017-09-07T20:05:10.718Z,17.00
2017-09-07T20:07:37.789Z,16.90
2017-09-07T20:10:04.877Z,16.80
2017-09-07T20:12:31.988Z,16.60
2017-09-07T20:14:59.078Z,16.50
2017-09-07T20:17:26.153Z,16.50
2017-09-07T20:19:54.009Z,16.30
2017-09-07T20:22:21.841Z,16.00
2017-09-07T20:24:48.933Z,16.00
2017-09-07T20:27:16.765Z,16.10
2017-09-07T20:29:43.861Z,16.10
2017-09-07T20:32:11.688Z,15.90
2017-09-07T20:34:38.757Z,15.80
2017-09-07T20:37:06.621Z,15.80
2017-09-07T20:39:34.461Z,15.80
2017-09-07T20:42:01.554Z,15.80
2017-09-07T20:44:28.626Z,15.80
2017-09-07T20:46:55.717Z,15.60
2017-09-07T20:49:22.788Z,15.50
2017-09-07T20:51:49.877Z,15.50
2017-09-07T20:54:16.941Z,15.40
2017-09-07T20:56:44.047Z,15.50
2017-09-07T20:59:11.118Z,15.30
2017-09-07T21:01:38.209Z,15.10
2017-09-07T21:04:05.283Z,15.20
2017-09-07T21:06:33.145Z,15.40
2017-09-07T21:09:00.980Z,15.30
2017-09-07T21:11:28.078Z,15.30
